Time;durP1;ratioP1;P1;durP2;ratioP2;P2;SDS_P1;SDS_P2;PMS_P1;PMS_P2;Temp;Humidity;BMP_temperature;BMP_pressure;BME280_temperature;BME280_humidity;BME280_pressure;Samples;Min_cycle;Max_cycle;Signal;HPM_P1;HPM_P2
2022/03/06 00:00:45;;;;;;;51.30;19.95;;;;;;;-3.81;76.01;101952.69;4967242;28;20054;-57
2022/03/06 00:03:13;;;;;;;52.35;22.73;;;;;;;-3.82;76.10;101958.53;4964723;28;20510;-56
2022/03/06 00:05:39;;;;;;;48.30;22.13;;;;;;;-3.83;76.33;101946.66;4964230;28;20054;-56
2022/03/06 00:08:07;;;;;;;49.33;20.33;;;;;;;-3.81;76.09;101957.75;4966369;28;20046;-55
2022/03/06 00:10:34;;;;;;;49.97;21.27;;;;;;;-3.81;76.41;101951.81;4963415;28;21088;-55
2022/03/06 00:13:01;;;;;;;47.83;17.60;;;;;;;-3.81;76.37;101955.22;4968415;28;20057;-58
2022/03/06 00:15:27;;;;;;;44.83;17.88;;;;;;;-3.82;76.30;101950.94;4964691;28;20058;-58
2022/03/06 00:17:55;;;;;;;40.30;19.00;;;;;;;-3.81;76.44;101945.09;4963756;28;20138;-56
2022/03/06 00:20:22;;;;;;;45.10;20.08;;;;;;;-3.79;76.10;101950.28;4964468;28;20051;-56
2022/03/06 00:22:49;;;;;;;45.95;19.52;;;;;;;-3.78;76.37;101948.63;4967810;28;20057;-56
2022/03/06 00:25:17;;;;;;;40.40;19.23;;;;;;;-3.78;76.22;101952.03;4966556;28;20117;-57
2022/03/06 00:27:44;;;;;;;45.20;19.88;;;;;;;-3.79;76.41;101941.78;4966099;28;20051;-57
2022/03/06 00:30:11;;;;;;;41.28;17.77;;;;;;;-3.81;76.39;101942.56;4987427;28;20065;-57
2022/03/06 00:32:37;;;;;;;45.40;19.02;;;;;;;-3.80;76.18;101935.84;4988560;28;20097;-57
2022/03/06 00:35:05;;;;;;;49.55;19.13;;;;;;;-3.79;76.27;101941.78;4989051;28;20046;-57
2022/03/06 00:37:31;;;;;;;39.13;16.92;;;;;;;-3.79;76.23;101937.59;4986869;28;20441;-57
2022/03/06 00:39:58;;;;;;;39.85;17.65;;;;;;;-3.77;76.01;101935.16;4986403;28;20129;-56
2022/03/06 00:42:26;;;;;;;40.58;17.48;;;;;;;-3.78;76.13;101933.41;4986921;28;20069;-56
2022/03/06 00:44:53;;;;;;;37.53;18.10;;;;;;;-3.78;76.11;101938.47;4987207;28;20522;-57
2022/03/06 00:47:20;;;;;;;40.58;17.45;;;;;;;-3.78;75.79;101934.28;4983765;28;20415;-56
2022/03/06 00:49:46;;;;;;;36.95;16.13;;;;;;;-3.81;75.75;101937.50;4985382;28;20061;-57
2022/03/06 00:52:13;;;;;;;46.83;19.65;;;;;;;-3.82;75.97;101943.34;4985849;28;20518;-57
2022/03/06 00:54:40;;;;;;;42.10;18.30;;;;;;;-3.83;75.82;101941.59;4986923;28;20042;-56
2022/03/06 00:57:06;;;;;;;42.05;17.35;;;;;;;-3.85;76.15;101943.13;4988059;28;20053;-56
2022/03/06 00:59:35;;;;;;;34.50;15.77;;;;;;;-3.85;76.04;101933.00;4986449;28;20493;-55
2022/03/06 01:02:03;;;;;;;41.00;17.63;;;;;;;-3.84;75.89;101933.88;4987257;28;20124;-56
2022/03/06 01:04:30;;;;;;;40.17;19.05;;;;;;;-3.87;75.94;101939.63;4988001;28;20061;-56
2022/03/06 01:06:57;;;;;;;42.42;18.33;;;;;;;-3.89;76.20;101941.16;4987567;28;20056;-56
2022/03/06 01:09:23;;;;;;;42.72;18.13;;;;;;;-3.91;76.08;101932.56;4986562;28;20045;-56
2022/03/06 01:11:51;;;;;;;46.42;20.63;;;;;;;-3.94;75.96;101937.44;4988225;28;20077;-56
2022/03/06 01:14:18;;;;;;;46.45;19.35;;;;;;;-3.95;76.04;101934.81;4984931;28;20046;-56
2022/03/06 01:16:46;;;;;;;51.35;22.02;;;;;;;-3.98;76.07;101938.00;4986691;28;20050;-57
2022/03/06 01:19:13;;;;;;;48.05;21.60;;;;;;;-3.99;76.20;101936.25;4986681;28;20768;-56
2022/03/06 01:21:39;;;;;;;44.17;20.80;;;;;;;-4.00;76.20;101941.19;4989511;28;20068;-57
2022/03/06 01:24:10;;;;;;;49.25;20.85;;;;;;;-4.01;76.28;101940.31;4983895;28;21653;-57
2022/03/06 01:26:36;;;;;;;47.95;20.45;;;;;;;-4.03;76.16;101931.75;4985434;28;20423;-56
2022/03/06 01:29:04;;;;;;;49.17;19.02;;;;;;;-4.04;76.65;101929.09;4985064;28;20062;-57
2022/03/06 01:31:31;;;;;;;51.78;22.85;;;;;;;-4.06;76.31;101934.06;4986323;28;20054;-57
2022/03/06 01:34:02;;;;;;;42.55;21.27;;;;;;;-4.06;76.53;101928.13;4984557;28;20149;-58
2022/03/06 01:36:29;;;;;;;57.75;23.65;;;;;;;-4.07;76.43;101929.78;4985060;28;20141;-57
2022/03/06 01:38:56;;;;;;;43.90;18.52;;;;;;;-4.09;76.81;101931.31;4986214;28;20058;-57
2022/03/06 01:41:22;;;;;;;45.20;19.92;;;;;;;-4.10;76.46;101929.56;4987738;28;20058;-56
2022/03/06 01:43:49;;;;;;;50.03;21.20;;;;;;;-4.11;76.71;101927.81;4985517;28;20507;-57
2022/03/06 01:46:16;;;;;;;48.50;22.25;;;;;;;-4.12;76.38;101933.63;4985586;28;20053;-56
2022/03/06 01:48:42;;;;;;;54.22;22.20;;;;;;;-4.12;76.52;101926.03;4987121;28;21725;-56
2022/03/06 01:51:10;;;;;;;44.63;18.38;;;;;;;-4.14;76.55;101932.66;4985511;28;20054;-55
2022/03/06 01:53:37;;;;;;;54.63;22.48;;;;;;;-4.14;76.58;101925.06;4984868;28;21636;-57
2022/03/06 01:56:03;;;;;;;54.45;22.27;;;;;;;-4.14;76.68;101918.34;4984679;28;20057;-57
2022/03/06 01:58:30;;;;;;;45.55;21.00;;;;;;;-4.15;76.52;101920.75;4985746;28;20046;-56
2022/03/06 02:00:56;;;;;;;45.72;19.48;;;;;;;-4.17;76.69;101928.22;4986036;28;20057;-55
2022/03/06 02:03:23;;;;;;;49.03;22.40;;;;;;;-4.18;76.78;101930.66;4984511;28;20058;-56
2022/03/06 02:05:50;;;;;;;52.05;20.65;;;;;;;-4.18;76.57;101930.66;4985506;28;20063;-56
2022/03/06 02:08:17;;;;;;;48.55;21.52;;;;;;;-4.19;76.70;101928.91;4985999;28;20044;-56
2022/03/06 02:10:44;;;;;;;48.90;21.70;;;;;;;-4.19;76.91;101924.72;4986199;28;20150;-57
2022/03/06 02:13:11;;;;;;;44.92;19.85;;;;;;;-4.18;76.49;101925.59;4984846;28;20050;-55
2022/03/06 02:15:37;;;;;;;41.60;19.23;;;;;;;-4.20;76.67;101922.06;4984746;28;20050;-57
2022/03/06 02:18:04;;;;;;;44.80;19.55;;;;;;;-4.20;76.70;101933.06;4986244;28;20054;-56
2022/03/06 02:20:31;;;;;;;48.10;19.48;;;;;;;-4.22;76.67;101916.03;4986406;28;20149;-57
2022/03/06 02:22:59;;;;;;;39.28;17.15;;;;;;;-4.21;76.91;101925.38;4984416;28;20054;-57
2022/03/06 02:25:29;;;;;;;38.50;17.40;;;;;;;-4.24;76.87;101920.97;4983926;28;20058;-57
2022/03/06 02:27:57;;;;;;;40.08;18.13;;;;;;;-4.24;77.04;101917.56;4985500;28;20260;-56
2022/03/06 02:30:26;;;;;;;40.05;16.10;;;;;;;-4.22;76.81;101913.50;4984298;28;20062;-57
2022/03/06 02:32:54;;;;;;;46.33;19.90;;;;;;;-4.20;76.83;101911.94;4984091;28;20062;-57
2022/03/06 02:35:22;;;;;;;37.13;16.65;;;;;;;-4.20;76.77;101907.75;4985101;28;20400;-57
2022/03/06 02:37:49;;;;;;;43.22;17.05;;;;;;;-4.20;76.75;101905.22;4985574;28;20050;-57
2022/03/06 02:40:18;;;;;;;35.45;14.98;;;;;;;-4.18;76.99;101910.41;4984199;28;20553;-57
2022/03/06 02:42:46;;;;;;;39.67;14.73;;;;;;;-4.18;76.85;101916.34;4982790;28;20523;-57
2022/03/06 02:45:17;;;;;;;49.22;18.13;;;;;;;-4.17;76.70;101907.97;4985980;28;20057;-57
2022/03/06 02:47:47;;;;;;;36.22;15.27;;;;;;;-4.18;76.80;101903.69;4985164;28;20050;-55
2022/03/06 02:50:15;;;;;;;40.15;17.45;;;;;;;-4.17;76.86;101902.91;4982962;28;20051;-56
2022/03/06 02:52:42;;;;;;;44.00;17.00;;;;;;;-4.18;76.50;101896.09;4984615;28;20502;-56
2022/03/06 02:55:10;;;;;;;37.05;15.35;;;;;;;-4.17;76.63;101896.97;4986066;28;20054;-55
2022/03/06 02:57:38;;;;;;;34.80;15.43;;;;;;;-4.17;76.72;101902.03;4983682;28;20420;-55
2022/03/06 03:00:07;;;;;;;33.50;16.02;;;;;;;-4.16;76.67;101898.75;4983104;28;20415;-56
2022/03/06 03:02:34;;;;;;;31.63;14.30;;;;;;;-4.15;76.64;101900.50;4985894;28;21552;-57
2022/03/06 03:05:01;;;;;;;29.10;15.40;;;;;;;-4.16;76.54;101899.63;4989370;28;20058;-55
2022/03/06 03:07:27;;;;;;;33.40;14.82;;;;;;;-4.17;76.50;101899.50;4986213;28;20357;-57
2022/03/06 03:09:54;;;;;;;34.08;15.90;;;;;;;-4.17;76.51;101889.38;4987372;28;20057;-55
2022/03/06 03:12:20;;;;;;;35.90;15.20;;;;;;;-4.18;76.42;101892.66;4990182;28;20062;-56
2022/03/06 03:14:48;;;;;;;35.50;13.73;;;;;;;-4.19;76.34;101889.25;4987993;28;20061;-57
2022/03/06 03:17:14;;;;;;;32.42;13.63;;;;;;;-4.20;76.66;101881.56;4987280;28;20050;-55
2022/03/06 03:19:41;;;;;;;31.27;13.43;;;;;;;-4.20;76.81;101884.09;4988529;28;20068;-56
2022/03/06 03:22:07;;;;;;;29.13;12.02;;;;;;;-4.21;76.89;101874.72;4988339;28;20454;-56
2022/03/06 03:24:34;;;;;;;27.08;11.82;;;;;;;-4.21;76.95;101874.72;4987931;28;20057;-56
2022/03/06 03:27:00;;;;;;;30.10;13.07;;;;;;;-4.21;77.10;101877.25;4988299;28;22166;-56
2022/03/06 03:29:26;;;;;;;31.45;13.30;;;;;;;-4.21;77.03;101870.56;4990721;28;20066;-57
2022/03/06 03:31:54;;;;;;;31.33;12.85;;;;;;;-4.18;76.98;101880.00;4989000;28;20050;-56
2022/03/06 03:34:20;;;;;;;28.52;13.07;;;;;;;-4.20;76.90;101877.38;4986143;28;20045;-56
2022/03/06 03:36:47;;;;;;;29.58;13.40;;;;;;;-4.21;77.05;101869.66;4986928;28;20054;-55
2022/03/06 03:39:13;;;;;;;32.08;14.35;;;;;;;-4.21;77.30;101869.66;4988259;28;20415;-56
2022/03/06 03:41:40;;;;;;;31.55;13.82;;;;;;;-4.21;76.96;101884.88;4989272;28;20419;-57
2022/03/06 03:44:07;;;;;;;28.17;12.68;;;;;;;-4.23;77.32;101876.28;4986933;28;20404;-56
2022/03/06 03:46:33;;;;;;;22.77;10.93;;;;;;;-4.24;76.96;101880.47;4988379;28;20046;-56
2022/03/06 03:49:01;;;;;;;28.98;13.10;;;;;;;-4.26;77.08;101881.13;4988266;28;20073;-57
2022/03/06 03:51:28;;;;;;;29.75;12.90;;;;;;;-4.25;77.13;101881.25;4987910;28;20062;-56
2022/03/06 03:53:54;;;;;;;28.40;12.27;;;;;;;-4.27;77.08;101879.38;4986524;28;20058;-55
2022/03/06 03:56:22;;;;;;;24.23;10.27;;;;;;;-4.29;77.39;101876.75;4987060;28;20062;-56
2022/03/06 03:58:49;;;;;;;31.88;12.20;;;;;;;-4.30;77.18;101876.63;4987786;28;20157;-56
2022/03/06 04:01:15;;;;;;;30.67;11.90;;;;;;;-4.31;77.10;101887.53;4985927;28;20050;-57
2022/03/06 04:03:41;;;;;;;27.95;12.23;;;;;;;-4.31;77.60;101882.47;4987951;28;20046;-56
2022/03/06 04:06:10;;;;;;;33.22;14.05;;;;;;;-4.30;77.61;101886.75;4990464;28;20088;-55
2022/03/06 04:08:37;;;;;;;26.70;12.30;;;;;;;-4.30;77.44;101884.22;4988429;28;20538;-55
2022/03/06 04:11:04;;;;;;;26.88;11.25;;;;;;;-4.30;77.30;101884.22;4984695;28;20458;-56
2022/03/06 04:13:31;;;;;;;32.50;13.27;;;;;;;-4.31;77.33;101877.41;4986911;28;20106;-56
2022/03/06 04:15:57;;;;;;;31.52;13.77;;;;;;;-4.33;77.48;101878.97;4987171;28;20772;-56
2022/03/06 04:18:24;;;;;;;27.95;13.15;;;;;;;-4.36;77.50;101873.69;4986569;28;20065;-56
2022/03/06 04:20:50;;;;;;;27.50;12.30;;;;;;;-4.35;77.60;101880.50;4987522;28;20046;-56
2022/03/06 04:23:18;;;;;;;27.13;12.02;;;;;;;-4.34;77.62;101882.25;4987427;28;20057;-56
2022/03/06 04:25:44;;;;;;;32.25;13.63;;;;;;;-4.33;77.48;101868.84;4988035;28;20491;-56
2022/03/06 04:28:11;;;;;;;28.40;11.73;;;;;;;-4.35;77.58;101865.31;4984899;28;20038;-56
2022/03/06 04:30:38;;;;;;;32.83;13.43;;;;;;;-4.37;77.60;101875.34;4984959;28;20057;-56
2022/03/06 04:33:04;;;;;;;30.27;12.57;;;;;;;-4.36;77.44;101866.09;4987025;28;20065;-56
2022/03/06 04:35:31;;;;;;;33.13;14.00;;;;;;;-4.36;77.62;101864.44;4989320;28;20042;-55
2022/03/06 04:37:58;;;;;;;37.25;14.55;;;;;;;-4.36;77.71;101863.56;4988452;28;20053;-56
2022/03/06 04:40:26;;;;;;;29.40;13.18;;;;;;;-4.36;77.67;101863.56;4987942;28;20530;-56
2022/03/06 04:42:52;;;;;;;32.25;13.02;;;;;;;-4.38;77.71;101860.03;4986413;28;20396;-56
2022/03/06 04:45:19;;;;;;;32.03;13.50;;;;;;;-4.40;77.98;101866.66;4984517;28;20496;-56
2022/03/06 04:47:45;;;;;;;29.08;11.70;;;;;;;-4.41;77.83;101864.91;4985813;28;20056;-57
2022/03/06 04:50:12;;;;;;;28.48;12.27;;;;;;;-4.42;77.96;101863.13;4985248;28;20419;-57
2022/03/06 04:52:38;;;;;;;28.40;12.30;;;;;;;-4.42;77.91;101853.88;4986039;28;20065;-57
2022/03/06 04:55:06;;;;;;;31.92;13.07;;;;;;;-4.43;77.76;101858.84;4984557;28;20050;-57
2022/03/06 04:57:34;;;;;;;28.25;13.07;;;;;;;-4.43;77.90;101853.78;4986057;28;20042;-56
2022/03/06 05:00:00;;;;;;;28.90;11.55;;;;;;;-4.43;77.74;101853.78;4985513;28;20098;-57
2022/03/06 05:02:27;;;;;;;26.63;11.00;;;;;;;-4.46;77.82;101850.25;4984994;28;20046;-55
2022/03/06 05:04:53;;;;;;;26.98;11.23;;;;;;;-4.46;78.01;101851.91;4983603;28;20676;-56
2022/03/06 05:07:20;;;;;;;27.85;11.68;;;;;;;-4.47;77.77;101853.56;4986080;28;20050;-57
2022/03/06 05:09:46;;;;;;;27.85;11.70;;;;;;;-4.47;77.90;101845.97;4986038;28;20094;-57
2022/03/06 05:12:12;;;;;;;23.17;10.80;;;;;;;-4.48;77.94;101841.69;4986213;28;20054;-57
2022/03/06 05:14:40;;;;;;;24.75;11.30;;;;;;;-4.50;77.60;101853.34;4985279;28;20480;-57
2022/03/06 05:17:07;;;;;;;25.25;10.98;;;;;;;-4.52;77.94;101852.38;4983556;28;20073;-56
2022/03/06 05:19:34;;;;;;;24.75;11.02;;;;;;;-4.55;78.12;101847.09;4985365;28;20038;-55
2022/03/06 05:22:00;;;;;;;21.55;10.50;;;;;;;-4.55;77.94;101854.69;4984829;28;20480;-55
2022/03/06 05:24:26;;;;;;;27.13;11.82;;;;;;;-4.54;78.01;101853.91;4984289;28;20415;-56
2022/03/06 05:26:53;;;;;;;23.20;11.60;;;;;;;-4.55;78.16;101857.22;4985852;28;20057;-55
2022/03/06 05:29:20;;;;;;;21.90;11.43;;;;;;;-4.53;78.08;101854.78;4984834;28;20476;-57
2022/03/06 05:31:48;;;;;;;27.52;12.52;;;;;;;-4.53;77.98;101860.75;4983640;28;20407;-56
2022/03/06 05:34:14;;;;;;;35.47;13.63;;;;;;;-4.53;78.09;101854.78;4983806;28;20427;-55
2022/03/06 05:36:41;;;;;;;24.02;11.23;;;;;;;-4.52;78.23;101857.44;4987626;28;20047;-57
2022/03/06 05:39:07;;;;;;;32.13;13.75;;;;;;;-4.51;78.18;101856.66;4985893;28;20042;-57
2022/03/06 05:41:33;;;;;;;25.83;11.90;;;;;;;-4.48;78.03;101864.47;4985375;28;20045;-56
2022/03/06 05:44:00;;;;;;;26.00;11.57;;;;;;;-4.45;78.03;101853.69;4984349;28;20046;-57
2022/03/06 05:46:26;;;;;;;22.40;11.63;;;;;;;-4.44;78.17;101850.38;4986976;28;20050;-54
2022/03/06 05:48:54;;;;;;;22.63;10.65;;;;;;;-4.40;78.11;101849.81;4986322;28;20038;-56
2022/03/06 05:51:20;;;;;;;22.35;9.00;;;;;;;-4.35;78.10;101856.06;4984133;28;20051;-56
2022/03/06 05:53:47;;;;;;;26.20;10.45;;;;;;;-4.32;78.15;101851.22;4985112;28;20472;-57
2022/03/06 05:56:13;;;;;;;20.65;10.73;;;;;;;-4.31;78.12;101847.03;4986253;28;20054;-56
2022/03/06 05:58:40;;;;;;;27.35;11.80;;;;;;;-4.26;78.02;101843.16;4985394;28;20441;-56
2022/03/06 06:01:06;;;;;;;23.02;10.68;;;;;;;-4.19;78.11;101840.28;4983249;28;20057;-57
2022/03/06 06:03:33;;;;;;;25.45;10.80;;;;;;;-4.16;78.05;101832.91;4986454;28;20054;-56
2022/03/06 06:06:00;;;;;;;25.85;9.65;;;;;;;-4.11;77.83;101838.28;4987935;28;20527;-57
2022/03/06 06:08:27;;;;;;;24.23;9.52;;;;;;;-4.07;78.24;101827.59;4984884;28;20066;-57
2022/03/06 06:10:53;;;;;;;23.67;9.63;;;;;;;-4.01;77.85;101822.94;4986169;28;20450;-56
2022/03/06 06:13:20;;;;;;;22.08;9.77;;;;;;;-3.97;77.71;101820.72;4984755;28;20062;-57
2022/03/06 06:15:46;;;;;;;21.90;9.85;;;;;;;-3.90;77.61;101820.34;4985314;28;20058;-55
2022/03/06 06:18:13;;;;;;;21.35;8.40;;;;;;;-3.81;77.90;101822.59;4985991;28;20506;-56
2022/03/06 06:20:40;;;;;;;21.00;9.07;;;;;;;-3.73;77.88;101820.56;4985520;28;20503;-57
2022/03/06 06:23:07;;;;;;;20.90;9.13;;;;;;;-3.63;77.88;101822.97;4984782;28;20050;-57
2022/03/06 06:25:34;;;;;;;20.30;8.27;;;;;;;-3.53;78.27;101816.06;4983855;28;20046;-56
2022/03/06 06:28:00;;;;;;;20.75;7.65;;;;;;;-3.41;78.24;101810.91;4984652;28;20447;-56
2022/03/06 06:30:27;;;;;;;19.83;8.10;;;;;;;-3.29;78.18;101811.69;4985994;28;20049;-56
2022/03/06 06:32:53;;;;;;;15.73;7.25;;;;;;;-3.12;78.53;101816.94;4987132;28;20046;-55
2022/03/06 06:35:20;;;;;;;12.70;6.85;;;;;;;-2.92;78.54;101820.00;4987887;28;20059;-55
2022/03/06 06:37:47;;;;;;;14.00;7.25;;;;;;;-2.72;79.09;101825.44;4984447;28;20519;-56
2022/03/06 06:40:15;;;;;;;15.18;8.05;;;;;;;-2.50;79.29;101822.59;4991013;28;20491;-56
2022/03/06 06:42:41;;;;;;;17.15;7.53;;;;;;;-2.26;78.55;101816.44;4989289;28;20065;-56
2022/03/06 06:45:08;;;;;;;14.88;7.30;;;;;;;-1.99;79.08;101819.78;4985819;28;20659;-55
2022/03/06 06:47:35;;;;;;;13.98;6.78;;;;;;;-1.72;79.06;101830.69;4988540;28;20069;-55
2022/03/06 06:50:01;;;;;;;19.85;8.13;;;;;;;-1.44;77.77;101833.19;4987390;28;20054;-55
2022/03/06 06:52:28;;;;;;;18.50;8.23;;;;;;;-1.16;77.56;101833.06;4990926;28;20042;-54
2022/03/06 06:54:54;;;;;;;14.88;6.82;;;;;;;-0.89;77.36;101832.06;4988804;28;20065;-54
2022/03/06 06:57:22;;;;;;;14.82;7.05;;;;;;;-0.58;75.85;101834.63;4988594;28;20058;-55
2022/03/06 06:59:49;;;;;;;15.70;7.15;;;;;;;-0.29;75.79;101820.91;4988217;28;20043;-55
2022/03/06 07:02:15;;;;;;;15.30;7.40;;;;;;;-0.02;74.53;101822.31;4987325;28;20053;-55
2022/03/06 07:04:42;;;;;;;14.38;7.00;;;;;;;0.26;73.51;101823.75;4991070;28;20073;-56
2022/03/06 07:07:08;;;;;;;12.43;6.38;;;;;;;0.53;73.37;101827.69;4988594;28;20054;-55
2022/03/06 07:09:35;;;;;;;11.52;5.95;;;;;;;0.76;72.14;101827.94;4987508;28;20065;-55
2022/03/06 07:12:02;;;;;;;12.55;6.53;;;;;;;0.95;70.81;101830.56;4986642;28;20491;-56
2022/03/06 07:14:30;;;;;;;16.67;6.50;;;;;;;1.17;69.59;101837.59;4987466;28;20056;-56
2022/03/06 07:16:57;;;;;;;14.30;6.22;;;;;;;1.35;69.47;101837.56;4989476;28;20073;-56
2022/03/06 07:19:23;;;;;;;14.18;6.70;;;;;;;1.53;68.74;101843.53;4989393;28;20054;-56
2022/03/06 07:21:49;;;;;;;13.02;6.85;;;;;;;1.66;67.82;101838.19;4990887;28;20061;-56
2022/03/06 07:24:16;;;;;;;9.18;5.13;;;;;;;1.78;66.95;101843.84;4987113;28;20050;-55
2022/03/06 07:26:42;;;;;;;10.63;4.72;;;;;;;1.90;66.50;101844.38;4988987;28;20049;-56
2022/03/06 07:29:09;;;;;;;8.15;4.82;;;;;;;2.02;65.96;101850.84;4986090;28;21751;-55
2022/03/06 07:31:37;;;;;;;8.07;3.90;;;;;;;2.13;65.75;101852.22;4986941;28;20514;-56
2022/03/06 07:34:04;;;;;;;6.43;1.80;;;;;;;2.25;65.05;101845.06;4987048;28;20050;-56
2022/03/06 07:36:30;;;;;;;4.70;1.65;;;;;;;2.39;63.86;101838.84;4989820;28;20058;-56
2022/03/06 07:38:57;;;;;;;3.53;2.25;;;;;;;2.56;63.57;101839.53;4985409;28;20057;-57
2022/03/06 07:41:23;;;;;;;5.28;1.55;;;;;;;2.69;61.87;101846.06;4988827;28;20058;-56
2022/03/06 07:43:50;;;;;;;5.53;1.92;;;;;;;2.84;61.69;101854.38;4987259;28;20055;-55
2022/03/06 07:46:16;;;;;;;3.22;1.27;;;;;;;2.99;60.83;101844.75;4989926;28;20058;-56
2022/03/06 07:48:44;;;;;;;2.20;0.70;;;;;;;3.22;59.84;101847.38;4985705;28;20502;-56
2022/03/06 07:51:11;;;;;;;3.28;1.10;;;;;;;3.40;58.37;101848.06;4986924;28;20058;-56
2022/03/06 07:53:37;;;;;;;5.00;2.72;;;;;;;3.52;58.25;101840.84;4986672;28;20050;-56
2022/03/06 07:56:04;;;;;;;4.95;2.50;;;;;;;3.60;57.27;101852.25;4988742;28;20062;-55
2022/03/06 07:58:30;;;;;;;5.03;2.50;;;;;;;3.64;57.09;101853.25;4985291;28;20101;-55
2022/03/06 08:00:57;;;;;;;4.55;1.80;;;;;;;3.62;56.49;101852.31;4986168;28;20435;-56
2022/03/06 08:03:23;;;;;;;3.80;1.70;;;;;;;3.63;55.87;101849.81;4986900;28;20054;-54
2022/03/06 08:05:51;;;;;;;6.00;1.95;;;;;;;3.70;55.94;101846.69;4989363;28;20065;-56
2022/03/06 08:08:17;;;;;;;3.47;2.15;;;;;;;3.78;55.48;101850.41;4986854;28;20062;-59
2022/03/06 08:10:44;;;;;;;7.15;2.47;;;;;;;3.79;55.66;101849.59;4987773;28;20447;-57
2022/03/06 08:13:11;;;;;;;5.13;1.92;;;;;;;3.83;55.53;101854.81;4988293;28;20050;-54
2022/03/06 08:15:37;;;;;;;2.90;1.40;;;;;;;3.86;54.72;101850.69;4987471;28;20046;-55
2022/03/06 08:18:04;;;;;;;2.22;0.82;;;;;;;3.85;54.74;101853.19;4985202;28;20510;-55
2022/03/06 08:20:30;;;;;;;2.92;1.40;;;;;;;3.85;54.69;101848.94;4987166;28;20060;-55
2022/03/06 08:22:58;;;;;;;5.40;1.70;;;;;;;3.82;54.28;101853.06;4989415;28;22023;-56
2022/03/06 08:25:24;;;;;;;5.75;1.20;;;;;;;3.74;53.95;101851.09;4984469;28;20129;-56
2022/03/06 08:27:51;;;;;;;5.32;1.40;;;;;;;3.70;53.80;101843.25;4987632;28;20047;-57
2022/03/06 08:30:17;;;;;;;4.57;1.45;;;;;;;3.65;53.77;101845.63;4987225;28;20057;-57
2022/03/06 08:32:44;;;;;;;6.28;1.80;;;;;;;3.62;53.55;101840.38;4987609;28;21046;-57
2022/03/06 08:35:10;;;;;;;4.97;2.20;;;;;;;3.56;53.62;101839.25;4986855;28;20471;-58
2022/03/06 08:37:37;;;;;;;4.00;1.77;;;;;;;3.55;52.94;101835.81;4985684;28;20049;-55
2022/03/06 08:40:08;;;;;;;3.63;1.48;;;;;;;3.52;53.51;101838.28;4985896;28;20066;-56
2022/03/06 08:42:35;;;;;;;3.20;1.50;;;;;;;3.53;53.42;101829.78;4986374;28;20412;-56
2022/03/06 08:45:01;;;;;;;5.05;1.75;;;;;;;3.51;53.20;101833.97;4984445;28;20635;-57
2022/03/06 08:47:28;;;;;;;4.47;1.77;;;;;;;3.52;54.13;101837.41;4985771;28;20066;-56
2022/03/06 08:49:54;;;;;;;4.20;2.00;;;;;;;3.53;53.24;101836.59;4985664;28;20046;-56
2022/03/06 08:52:20;;;;;;;5.65;2.13;;;;;;;3.56;53.79;101835.00;4983548;28;20058;-57
2022/03/06 08:54:47;;;;;;;3.63;1.20;;;;;;;3.55;53.46;101828.13;4987290;28;20055;-55
2022/03/06 08:57:15;;;;;;;4.78;1.35;;;;;;;3.55;53.10;101830.69;4987647;28;20046;-54
2022/03/06 08:59:41;;;;;;;4.82;1.40;;;;;;;3.53;52.85;101826.34;4984608;28;20478;-55
2022/03/06 09:02:08;;;;;;;3.88;1.50;;;;;;;3.51;53.23;101831.41;4986345;28;20550;-56
2022/03/06 09:04:34;;;;;;;3.00;1.60;;;;;;;3.55;53.25;101825.56;4985678;28;20069;-56
2022/03/06 09:07:01;;;;;;;5.07;1.80;;;;;;;3.51;52.73;101827.97;4988204;28;20066;-56
2022/03/06 09:09:28;;;;;;;2.80;1.10;;;;;;;3.48;52.50;101832.16;4988078;28;20038;-56
2022/03/06 09:11:54;;;;;;;1.95;0.52;;;;;;;3.47;52.38;101829.53;4985603;28;20057;-56
2022/03/06 09:14:22;;;;;;;2.90;0.60;;;;;;;3.44;52.57;101829.44;4987039;28;20046;-57
2022/03/06 09:16:48;;;;;;;1.95;0.60;;;;;;;3.42;52.68;101825.94;4984999;28;20049;-57
2022/03/06 09:19:15;;;;;;;2.28;0.68;;;;;;;3.42;52.32;101836.19;4984444;28;20054;-56
2022/03/06 09:21:43;;;;;;;1.63;0.63;;;;;;;3.43;52.52;101830.25;4987087;28;20053;-57
2022/03/06 09:24:10;;;;;;;3.38;0.73;;;;;;;3.49;52.25;101827.91;4987026;28;20133;-56
2022/03/06 09:26:37;;;;;;;3.25;0.90;;;;;;;3.48;52.79;101827.03;4987261;28;20133;-56
2022/03/06 09:29:04;;;;;;;5.57;1.30;;;;;;;3.53;52.46;101827.22;4984442;28;20061;-57
2022/03/06 09:31:33;;;;;;;2.38;1.30;;;;;;;3.54;52.50;101821.25;4988287;28;20394;-57
2022/03/06 09:33:59;;;;;;;2.72;1.20;;;;;;;3.54;52.76;101826.38;4983953;28;20494;-57
2022/03/06 09:36:26;;;;;;;3.28;1.83;;;;;;;3.52;52.60;101828.03;4983223;28;20053;-56
2022/03/06 09:38:52;;;;;;;2.03;0.90;;;;;;;3.51;52.40;101825.41;4984549;28;20054;-57
2022/03/06 09:41:25;;;;;;;4.30;1.80;;;;;;;3.53;51.93;101826.34;4983601;28;20056;-56
2022/03/06 09:43:55;;;;;;;3.67;1.38;;;;;;;3.54;51.83;101825.50;4984612;28;20054;-57
2022/03/06 09:46:22;;;;;;;3.00;1.30;;;;;;;3.57;52.71;101826.50;4982866;28;20104;-56
2022/03/06 09:48:50;;;;;;;3.28;1.52;;;;;;;3.58;51.65;101828.25;4983744;28;20082;-57
2022/03/06 09:51:16;;;;;;;3.55;1.30;;;;;;;3.56;52.03;101824.75;4982160;28;20046;-56
2022/03/06 09:53:43;;;;;;;3.65;1.73;;;;;;;3.58;52.07;101823.13;4982678;28;20039;-56
2022/03/06 09:56:10;;;;;;;4.93;1.70;;;;;;;3.58;51.53;101823.13;4983855;28;20472;-56
2022/03/06 09:58:36;;;;;;;4.65;2.10;;;;;;;3.59;51.65;101822.31;4983629;28;20050;-57
2022/03/06 10:01:03;;;;;;;2.97;1.35;;;;;;;3.59;51.98;101827.44;4985269;28;20641;-55
2022/03/06 10:03:35;;;;;;;5.53;2.05;;;;;;;3.67;51.73;101822.63;4984329;28;20416;-56
2022/03/06 10:06:04;;;;;;;4.03;1.60;;;;;;;3.70;51.87;101823.59;4984354;28;20053;-56
2022/03/06 10:08:31;;;;;;;5.55;1.60;;;;;;;3.71;51.96;101820.22;4980793;28;20518;-55
2022/03/06 10:10:59;;;;;;;3.05;1.38;;;;;;;3.72;51.72;101821.09;4985089;28;20062;-56
2022/03/06 10:13:29;;;;;;;5.70;3.08;;;;;;;3.72;51.28;101811.72;4984553;28;20051;-54
2022/03/06 10:16:04;;;;;;;3.70;1.55;;;;;;;3.72;51.05;101811.72;4986728;28;20062;-57
2022/03/06 10:18:32;;;;;;;4.50;1.75;;;;;;;3.73;51.48;101810.88;4985708;28;20081;-56
2022/03/06 10:21:13;;;;;;;6.93;2.42;;;;;;;3.78;50.83;101811.94;4987261;28;20043;-56
2022/03/06 10:23:40;;;;;;;4.63;1.92;;;;;;;3.83;51.56;101813.78;4987052;28;20050;-57
2022/03/06 10:26:08;;;;;;;6.35;1.60;;;;;;;3.83;51.72;101819.78;4984979;28;20418;-56
2022/03/06 10:28:44;;;;;;;3.75;1.48;;;;;;;3.79;50.88;101815.38;4987506;28;20787;-57
2022/03/06 10:31:10;;;;;;;5.63;1.55;;;;;;;3.78;51.07;101821.31;4987051;28;20050;-57
2022/03/06 10:33:37;;;;;;;4.05;1.70;;;;;;;3.76;51.25;101815.25;4985051;28;20054;-57
2022/03/06 10:36:10;;;;;;;3.63;2.13;;;;;;;3.73;51.52;101804.88;4985757;28;20065;-56
2022/03/06 10:38:38;;;;;;;3.88;1.60;;;;;;;3.72;51.40;101810.84;4984611;28;20054;-56
2022/03/06 10:41:17;;;;;;;4.07;1.50;;;;;;;3.74;50.28;101799.81;4984081;28;20077;-57
2022/03/06 10:43:43;;;;;;;3.28;1.70;;;;;;;3.82;51.10;101801.78;4988960;28;20385;-57
2022/03/06 10:46:12;;;;;;;4.50;1.85;;;;;;;3.84;50.39;101795.88;4988480;28;20058;-56
2022/03/06 10:48:39;;;;;;;4.97;2.17;;;;;;;3.91;50.34;101800.41;4988751;28;20050;-55
2022/03/06 10:51:07;;;;;;;4.20;2.35;;;;;;;4.01;49.91;101799.03;4985874;28;20097;-55
2022/03/06 10:53:36;;;;;;;9.57;5.93;;;;;;;4.08;49.79;101786.47;4986506;28;20439;-56
2022/03/06 10:56:10;;;;;;;4.30;1.90;;;;;;;4.17;48.83;101785.06;4984159;28;20435;-56
2022/03/06 10:58:38;;;;;;;10.52;5.80;;;;;;;4.20;49.13;101788.63;4990833;28;20050;-56
2022/03/06 11:01:05;;;;;;;6.95;3.10;;;;;;;4.25;49.29;101789.66;4990132;28;20077;-56
2022/03/06 11:03:33;;;;;;;6.20;2.72;;;;;;;4.34;49.83;101783.94;4989336;28;20054;-57
2022/03/06 11:06:01;;;;;;;5.25;2.17;;;;;;;4.42;49.52;101782.50;4989548;28;20066;-57
2022/03/06 11:08:28;;;;;;;6.93;4.13;;;;;;;4.53;49.26;101775.16;4989849;28;20483;-57
2022/03/06 11:10:56;;;;;;;5.43;2.42;;;;;;;4.59;48.27;101780.47;4989041;28;20038;-57
2022/03/06 11:13:23;;;;;;;5.03;2.90;;;;;;;4.65;47.96;101773.84;4990339;28;20046;-56
2022/03/06 11:15:50;;;;;;;12.25;5.13;;;;;;;4.70;48.29;101771.47;4990416;28;20054;-57
2022/03/06 11:18:17;;;;;;;8.20;2.88;;;;;;;4.75;47.89;101773.34;4988866;28;20049;-57